sensor_id;sensor_type;location;lat;lon;timestamp;temperature;humidity
19742;DHT22;10028;48.822;11.854;2023-04-03T00:15:38;3.70;99.90
19742;DHT22;10028;48.822;11.854;2023-04-03T00:20:33;3.70;99.90
19742;DHT22;10028;48.822;11.854;2023-04-03T00:23:01;3.70;99.90
19742;DHT22;10028;48.822;11.854;2023-04-03T00:37:45;3.60;99.90
19742;DHT22;10028;48.822;11.854;2023-04-03T00:40:14;3.60;99.90
19742;DHT22;10028;48.822;11.854;2023-04-03T00:42:42;3.60;99.90
19742;DHT22;10028;48.822;11.854;2023-04-03T00:55:08;3.60;99.90
19742;DHT22;10028;48.822;11.854;2023-04-03T01:00:09;3.60;99.90
19742;DHT22;10028;48.822;11.854;2023-04-03T01:05:04;3.60;99.90
19742;DHT22;10028;48.822;11.854;2023-04-03T01:10:07;3.60;99.90
19742;DHT22;10028;48.822;11.854;2023-04-03T01:12:40;3.60;99.90
19742;DHT22;10028;48.822;11.854;2023-04-03T01:15:16;3.60;99.90
19742;DHT22;10028;48.822;11.854;2023-04-03T01:17:57;3.60;99.90
19742;DHT22;10028;48.822;11.854;2023-04-03T01:20:42;3.60;99.90
19742;DHT22;10028;48.822;11.854;2023-04-03T01:25:52;3.60;99.90
19742;DHT22;10028;48.822;11.854;2023-04-03T01:28:23;3.60;99.90
19742;DHT22;10028;48.822;11.854;2023-04-03T03:45:52;3.20;99.90
19742;DHT22;10028;48.822;11.854;2023-04-03T05:19:21;3.10;99.90
19742;DHT22;10028;48.822;11.854;2023-04-03T05:24:16;3.10;99.90
19742;DHT22;10028;48.822;11.854;2023-04-03T05:26:43;3.10;99.90
19742;DHT22;10028;48.822;11.854;2023-04-03T05:51:23;3.20;99.90
19742;DHT22;10028;48.822;11.854;2023-04-03T05:53:56;3.30;99.90
19742;DHT22;10028;48.822;11.854;2023-04-03T06:16:10;3.50;99.90
19742;DHT22;10028;48.822;11.854;2023-04-03T06:35:56;3.60;99.90
19742;DHT22;10028;48.822;11.854;2023-04-03T08:21:53;5.00;99.90
19742;DHT22;10028;48.822;11.854;2023-04-03T08:41:42;5.10;99.90
19742;DHT22;10028;48.822;11.854;2023-04-03T08:47:24;5.20;99.90
19742;DHT22;10028;48.822;11.854;2023-04-03T08:49:58;5.30;99.90
19742;DHT22;10028;48.822;11.854;2023-04-03T08:52:38;5.30;99.90
19742;DHT22;10028;48.822;11.854;2023-04-03T08:58:01;5.40;99.90
19742;DHT22;10028;48.822;11.854;2023-04-03T09:01:20;5.40;99.90
19742;DHT22;10028;48.822;11.854;2023-04-03T09:03:21;5.50;99.90
19742;DHT22;10028;48.822;11.854;2023-04-03T09:06:13;5.50;99.90
19742;DHT22;10028;48.822;11.854;2023-04-03T09:11:25;5.50;99.90
19742;DHT22;10028;48.822;11.854;2023-04-03T09:16:54;5.60;99.90
19742;DHT22;10028;48.822;11.854;2023-04-03T09:24:41;5.40;99.90
19742;DHT22;10028;48.822;11.854;2023-04-03T09:27:10;5.50;99.90
19742;DHT22;10028;48.822;11.854;2023-04-03T09:29:43;5.60;99.90
19742;DHT22;10028;48.822;11.854;2023-04-03T09:32:34;5.70;99.90
19742;DHT22;10028;48.822;11.854;2023-04-03T09:37:51;5.90;99.90
19742;DHT22;10028;48.822;11.854;2023-04-03T09:40:38;5.90;99.90
19742;DHT22;10028;48.822;11.854;2023-04-03T09:43:27;7.00;99.90
19742;DHT22;10028;48.822;11.854;2023-04-03T09:45:56;6.10;99.90
19742;DHT22;10028;48.822;11.854;2023-04-03T09:48:25;6.20;99.90
19742;DHT22;10028;48.822;11.854;2023-04-03T09:51:01;6.30;99.90
19742;DHT22;10028;48.822;11.854;2023-04-03T09:58:47;6.60;99.90
19742;DHT22;10028;48.822;11.854;2023-04-03T10:09:30;6.50;99.90
19742;DHT22;10028;48.822;11.854;2023-04-03T10:15:17;6.30;99.90
19742;DHT22;10028;48.822;11.854;2023-04-03T10:20:37;6.10;99.90
19742;DHT22;10028;48.822;11.854;2023-04-03T10:25:43;6.30;99.90
19742;DHT22;10028;48.822;11.854;2023-04-03T10:33:56;6.20;99.90
19742;DHT22;10028;48.822;11.854;2023-04-03T10:45:03;6.70;99.90
19742;DHT22;10028;48.822;11.854;2023-04-03T10:50:31;7.00;99.90
19742;DHT22;10028;48.822;11.854;2023-04-03T10:58:39;7.60;99.90
19742;DHT22;10028;48.822;11.854;2023-04-03T11:01:11;7.80;99.90
19742;DHT22;10028;48.822;11.854;2023-04-03T11:03:48;7.80;99.90
19742;DHT22;10028;48.822;11.854;2023-04-03T11:06:18;7.90;99.90
19742;DHT22;10028;48.822;11.854;2023-04-03T11:09:05;7.90;99.90
19742;DHT22;10028;48.822;11.854;2023-04-03T11:11:38;7.70;99.90
19742;DHT22;10028;48.822;11.854;2023-04-03T11:14:10;7.60;99.90
19742;DHT22;10028;48.822;11.854;2023-04-03T11:16:46;7.40;99.90
19742;DHT22;10028;48.822;11.854;2023-04-03T11:19:22;7.40;99.90
19742;DHT22;10028;48.822;11.854;2023-04-03T11:24:27;7.70;99.90
19742;DHT22;10028;48.822;11.854;2023-04-03T11:29:31;8.00;99.90
19742;DHT22;10028;48.822;11.854;2023-04-03T11:32:27;8.00;99.90
19742;DHT22;10028;48.822;11.854;2023-04-03T11:35:00;7.90;99.90
19742;DHT22;10028;48.822;11.854;2023-04-03T11:37:33;7.70;99.90
19742;DHT22;10028;48.822;11.854;2023-04-03T11:42:39;7.40;99.90
19742;DHT22;10028;48.822;11.854;2023-04-03T11:48:03;7.60;99.90
19742;DHT22;10028;48.822;11.854;2023-04-03T11:55:55;7.20;99.90
19742;DHT22;10028;48.822;11.854;2023-04-03T11:58:32;7.20;99.90
19742;DHT22;10028;48.822;11.854;2023-04-03T12:01:04;7.30;99.90
19742;DHT22;10028;48.822;11.854;2023-04-03T12:16:20;7.80;99.90
19742;DHT22;10028;48.822;11.854;2023-04-03T12:19:01;7.80;99.90
19742;DHT22;10028;48.822;11.854;2023-04-03T12:22:19;7.70;99.90
19742;DHT22;10028;48.822;11.854;2023-04-03T12:24:27;7.80;99.90
19742;DHT22;10028;48.822;11.854;2023-04-03T12:40:51;7.90;99.90
19742;DHT22;10028;48.822;11.854;2023-04-03T12:43:37;7.90;99.90
19742;DHT22;10028;48.822;11.854;2023-04-03T12:48:50;7.90;99.90
19742;DHT22;10028;48.822;11.854;2023-04-03T12:51:40;7.70;99.90
19742;DHT22;10028;48.822;11.854;2023-04-03T12:54:31;7.70;99.90
19742;DHT22;10028;48.822;11.854;2023-04-03T13:02:29;7.90;99.90
19742;DHT22;10028;48.822;11.854;2023-04-03T13:04:59;8.00;99.90
19742;DHT22;10028;48.822;11.854;2023-04-03T13:07:33;8.00;99.90
19742;DHT22;10028;48.822;11.854;2023-04-03T13:15:01;8.00;99.90
19742;DHT22;10028;48.822;11.854;2023-04-03T13:20:52;8.00;99.90
19742;DHT22;10028;48.822;11.854;2023-04-03T13:23:06;8.10;99.90
19742;DHT22;10028;48.822;11.854;2023-04-03T13:25:39;8.10;99.90
19742;DHT22;10028;48.822;11.854;2023-04-03T13:30:41;8.00;99.90
19742;DHT22;10028;48.822;11.854;2023-04-03T13:33:24;8.00;99.90
19742;DHT22;10028;48.822;11.854;2023-04-03T13:36:18;8.00;99.90
19742;DHT22;10028;48.822;11.854;2023-04-03T13:41:34;8.00;99.90
19742;DHT22;10028;48.822;11.854;2023-04-03T13:46:55;7.70;99.70
19742;DHT22;10028;48.822;11.854;2023-04-03T13:54:36;7.50;99.90
19742;DHT22;10028;48.822;11.854;2023-04-03T13:57:16;7.60;99.90
19742;DHT22;10028;48.822;11.854;2023-04-03T14:02:30;7.80;99.90
19742;DHT22;10028;48.822;11.854;2023-04-03T14:05:00;7.70;99.90
19742;DHT22;10028;48.822;11.854;2023-04-03T14:07:29;7.50;99.90
19742;DHT22;10028;48.822;11.854;2023-04-03T14:12:43;7.40;99.90
19742;DHT22;10028;48.822;11.854;2023-04-03T14:15:24;7.50;99.90
19742;DHT22;10028;48.822;11.854;2023-04-03T14:20:24;7.70;99.90
19742;DHT22;10028;48.822;11.854;2023-04-03T14:22:52;7.80;99.90
19742;DHT22;10028;48.822;11.854;2023-04-03T14:25:21;7.90;99.90
19742;DHT22;10028;48.822;11.854;2023-04-03T14:27:52;7.80;99.90
19742;DHT22;10028;48.822;11.854;2023-04-03T14:30:25;7.80;99.90
19742;DHT22;10028;48.822;11.854;2023-04-03T14:37:51;7.60;99.90
19742;DHT22;10028;48.822;11.854;2023-04-03T14:40:23;7.70;99.90
19742;DHT22;10028;48.822;11.854;2023-04-03T14:47:51;7.80;99.90
19742;DHT22;10028;48.822;11.854;2023-04-03T14:50:24;7.90;99.90
19742;DHT22;10028;48.822;11.854;2023-04-03T14:52:55;7.90;99.90
19742;DHT22;10028;48.822;11.854;2023-04-03T14:55:23;7.80;99.90
19742;DHT22;10028;48.822;11.854;2023-04-03T15:00:21;7.90;99.90
19742;DHT22;10028;48.822;11.854;2023-04-03T15:07:49;7.50;99.90
19742;DHT22;10028;48.822;11.854;2023-04-03T15:10:20;7.50;99.90
19742;DHT22;10028;48.822;11.854;2023-04-03T15:12:48;7.50;99.90
19742;DHT22;10028;48.822;11.854;2023-04-03T15:15:16;7.50;99.90
19742;DHT22;10028;48.822;11.854;2023-04-03T15:17:44;7.50;99.90
19742;DHT22;10028;48.822;11.854;2023-04-03T15:20:21;7.30;99.90
19742;DHT22;10028;48.822;11.854;2023-04-03T15:30:18;7.60;99.90
19742;DHT22;10028;48.822;11.854;2023-04-03T15:32:45;7.70;99.90
19742;DHT22;10028;48.822;11.854;2023-04-03T15:40:08;7.70;99.90
19742;DHT22;10028;48.822;11.854;2023-04-03T16:09:37;6.70;99.90
19742;DHT22;10028;48.822;11.854;2023-04-03T16:16:59;6.80;99.90
19742;DHT22;10028;48.822;11.854;2023-04-03T16:21:54;6.80;99.90
19742;DHT22;10028;48.822;11.854;2023-04-03T17:01:17;5.90;99.90
19742;DHT22;10028;48.822;11.854;2023-04-03T17:06:16;5.80;99.90
19742;DHT22;10028;48.822;11.854;2023-04-03T17:08:45;5.70;99.90
19742;DHT22;10028;48.822;11.854;2023-04-03T17:16:09;5.40;99.90
19742;DHT22;10028;48.822;11.854;2023-04-03T17:23:33;5.20;99.90
19742;DHT22;10028;48.822;11.854;2023-04-03T17:26:02;5.20;99.90
19742;DHT22;10028;48.822;11.854;2023-04-03T17:30:58;5.00;99.90
19742;DHT22;10028;48.822;11.854;2023-04-03T17:33:26;4.90;99.90
19742;DHT22;10028;48.822;11.854;2023-04-03T17:35:58;4.90;99.90
19742;DHT22;10028;48.822;11.854;2023-04-03T17:40:56;4.70;99.90
19742;DHT22;10028;48.822;11.854;2023-04-03T18:07:59;4.10;99.90
19742;DHT22;10028;48.822;11.854;2023-04-03T18:15:25;3.90;99.90
19742;DHT22;10028;48.822;11.854;2023-04-03T18:20:23;3.70;99.90
19742;DHT22;10028;48.822;11.854;2023-04-03T18:27:46;3.60;99.90
19742;DHT22;10028;48.822;11.854;2023-04-03T18:30:15;3.60;99.90
19742;DHT22;10028;48.822;11.854;2023-04-03T18:45:01;3.40;99.90
19742;DHT22;10028;48.822;11.854;2023-04-03T18:47:30;3.30;99.90
19742;DHT22;10028;48.822;11.854;2023-04-03T19:12:06;2.90;99.90
19742;DHT22;10028;48.822;11.854;2023-04-03T19:41:35;2.50;99.90
19742;DHT22;10028;48.822;11.854;2023-04-03T19:44:04;2.40;99.90
19742;DHT22;10028;48.822;11.854;2023-04-03T19:46:33;2.40;99.90
19742;DHT22;10028;48.822;11.854;2023-04-03T20:01:21;2.30;99.90
19742;DHT22;10028;48.822;11.854;2023-04-03T20:21:04;2.20;99.90
19742;DHT22;10028;48.822;11.854;2023-04-03T20:25:59;2.10;99.90
19742;DHT22;10028;48.822;11.854;2023-04-03T20:31:05;2.00;99.90
19742;DHT22;10028;48.822;11.854;2023-04-03T20:55:55;1.60;99.90
19742;DHT22;10028;48.822;11.854;2023-04-03T23:31:01;0.60;99.90
19742;DHT22;10028;48.822;11.854;2023-04-03T23:33:29;0.60;99.90
19742;DHT22;10028;48.822;11.854;2023-04-03T23:35:58;0.70;99.90
